KOWD/OWD METAR and TAF weather

Enter ICAO airport designator
Station Type Date Time Source
KOWD METAR 2022/06/25 21:53 UTC NOAA

KOWD 252153Z 12004KT 10SM CLR 31/13 A3006 RMK AO2 SLP179 T03060133


Station Type Date Time Source
KOWD Decoded METAR 2022/06/25 21:53 UTC NOAA

NORWOOD MEMORIAL AIRPORT, MA, United States (KOWD) 42-11N 71-10W 19M
Jun 25, 2022 - 05:53 PM EDT / 2022.06.25 2153 UTC
Wind: from the ESE (120 degrees) at 5 MPH (4 KT):0
Visibility: 10 mile(s):0
Sky conditions: clear
Temperature: 87.1 F (30.6 C)
Dew Point: 55.9 F (13.3 C)
Relative Humidity: 34%
Pressure (altimeter): 30.06 in. Hg (1017 hPa)
ob: KOWD 252153Z 12004KT 10SM CLR 31/13 A3006 RMK AO2 SLP179 T03060133
cycle: 22

Station Type Date Time Source
KOWD TAF UTC NOAA

Error!

Example: see airport list